METAR Data
IDs: Format: Raw Decoded Include TAF

Data at: 0624 UTC 23 Feb 2019

PFSH 230556Z AUTO 14022KT 8SM OVC040 M02/M04 A3008 RMK AO2 PK WND 14027/0530 SLP186 60000 T10221044 11017 21022 51009 FZRANO
PFSH 230456Z AUTO 14021KT 8SM OVC045 M02/M04 A3008 RMK AO2 PK WND 14026/0428 SNE0358 SLP186 P0000 T10221044 FZRANO
PFSH 230356Z AUTO 14021KT 5SM -SN BR SCT047 SCT060 OVC075 M02/M04 A3007 RMK AO2 PK WND 15029/0337 SLP181 P0000 T10221039 FZRANO
PFSH 230344Z AUTO 14023KT 3SM -SN BR SCT036 BKN049 OVC065 M02/M03 A3006 RMK AO2 PK WND 15029/0337 P0000 FZRANO
PFSH 230329Z AUTO 15024KT 1 1/2SM -SN BR BKN038 OVC045 M02/M03 A3006 RMK AO2 PK WND 15029/0327 P0000 FZRANO
PFSH 230314Z AUTO 15024KT 2SM -SN BR SCT035 OVC044 M02/M03 A3006 RMK AO2 PK WND 15028/0304 P0000 FZRANO
PFSH 230303Z AUTO 15024KT 1SM -SN BR SCT030 OVC040 M02/M03 A3006 RMK AO2 PK WND 15028/0259 P0000 FZRANO
PFSH 230256Z AUTO 15024G29KT 1SM -SN BR BKN029 OVC037 M02/M03 A3006 RMK AO2 PK WND 15033/0240 SLP177 P0000 60000 T10171028 56005 FZRANO
PFSH 230253Z AUTO 15025G30KT 1SM -SN BR SCT026 OVC034 M02/M03 A3005 RMK AO2 PK WND 15033/0240 P0000 FZRANO
PFSH 230156Z AUTO 15025KT 3/4SM -SN BR BKN024 OVC028 M02/M03 A3006 RMK AO2 PK WND 15032/0125 SLP178 P0000 T10171028 FZRANO
PFSH 230056Z AUTO 15025G29KT 3/4SM -SN BR BKN022 OVC033 M02/M03 A3006 RMK AO2 PK WND 15031/0012 SLP180 P0000 T10171028 FZRANO
PFSH 230033Z AUTO 15023KT 3/4SM -SN BR BKN020 OVC025 M02/M03 A3007 RMK AO2 PK WND 15031/0012 P0000 FZRANO
PFSH 222356Z AUTO 15025G31KT 1/2SM -SN FZFG FEW010 OVC018 M02/M03 A3007 RMK AO2 PK WND 15032/2321 SLP182 P0000 60000 T10171028 11017 21033 56006 FZRANO
PFSH 222320Z AUTO 15026G31KT 1/2SM -SN FZFG OVC016 M02/M03 A3007 RMK AO2 PK WND 15031/2319 P0000 FZRANO
PFSH 222311Z AUTO 15024KT 3/4SM -SN BR OVC016 M02/M03 A3007 RMK AO2 PK WND 15028/2311 P0000 FZRANO
PFSH 222300Z AUTO 15025KT 3/4SM -SN BR FEW007 BKN010 OVC018 M02/M03 A3007 RMK AO2 PK WND 14027/2259 P0000 FZRANO
PFSH 222256Z AUTO 14023KT 1/2SM -SN FZFG BKN010 OVC018 M02/M03 A3008 RMK AO2 PK WND 14028/2241 SLP184 P0000 T10221033 FZRANO
PFSH 222156Z AUTO 14022KT 1/2SM -SN FZFG BKN012 OVC019 M03/M04 A3008 RMK AO2 PK WND 14029/2118 SLP185 P0000 T10281039 FZRANO
PFSH 222147Z AUTO 14023KT 1/2SM -SN FZFG BKN014 OVC019 M03/M04 A3008 RMK AO2 PK WND 14029/2118 P0000 FZRANO
PFSH 222136Z AUTO 14024KT 3/4SM -SN BR OVC016 M03/M04 A3008 RMK AO2 PK WND 14029/2118 P0000 FZRANO
PFSH 222118Z AUTO 15026KT 3/4SM -SN BR OVC012 M03/M04 A3008 RMK AO2 PK WND 14029/2118 P0000 FZRANO
PFSH 222056Z AUTO 15025KT 1/2SM -SN FZFG OVC012 M03/M04 A3009 RMK AO2 PK WND 15028/2053 SLP188 P0000 60000 T10281039 50002 FZRANO
PFSH 222035Z AUTO 15023KT 1/2SM SN FZFG BKN012 OVC018 M03/M04 A3009 RMK AO2 PK WND 15028/2002 P0000 FZRANO
PFSH 222026Z AUTO 15024KT 1/2SM -SN FZFG OVC015 M03/M04 A3009 RMK AO2 PK WND 15028/2002 P0000 FZRANO
PFSH 222007Z AUTO 14023KT 1SM -SN BR OVC019 M03/M05 A3009 RMK AO2 PK WND 15028/2002 P0000 FZRANO
PFSH 221956Z AUTO 14022KT 1 1/4SM -SN BR BKN019 OVC028 M03/M05 A3009 RMK AO2 PK WND 15028/1951 SLP189 P0000 T10281050 FZRANO
PFSH 221943Z AUTO 14023KT 1 3/4SM -SN BR SCT019 OVC028 M03/M06 A3009 RMK AO2 PK WND 14028/1932 P0000 FZRANO
PFSH 221922Z AUTO 14021KT 5SM -SN BR BKN028 OVC034 M03/M06 A3008 RMK AO2 P0000 FZRANO
PFSH 221910Z AUTO 14021KT 8SM SCT028 OVC034 M03/M06 A3009 RMK AO2 SNE10 P0000 FZRANO
PFSH 221856Z AUTO 14020KT 5SM -SN BR BKN028 OVC034 M03/M06 A3009 RMK AO2 PK WND 14029/1800 SLP187 P0000 T10331056 FZRANO
PFSH 221756Z AUTO 15025KT 5SM -SN BR SCT042 OVC080 M03/M06 A3008 RMK AO2 PK WND 14028/1754 SLP186 P0000 60000 T10331056 11033 21056 56011 FZRANO
PFSH 221733Z AUTO 15023KT 4SM -SN BR SCT029 BKN035 OVC042 M03/M06 A3008 RMK AO2 PK WND 15027/1729 P0000 FZRANO
PFSH 221726Z AUTO 15022KT 5SM -SN BR BKN029 BKN034 M03/M06 A3008 RMK AO2 PK WND 15027/1720 P0000 FZRANO
PFSH 221656Z AUTO 15021KT 8SM -SN FEW034 M03/M06 A3008 RMK AO2 SLP187 P0000 T10331056 FZRANO
PFSH 221556Z AUTO 14017KT 9SM -SN SCT034 BKN044 OVC055 M04/M06 A3009 RMK AO2 SNB30 SLP190 P0000 T10391056 FZRANO
PFSH 221456Z AUTO 14018KT 9SM SCT037 BKN055 OVC080 M04/M06 A3011 RMK AO2 SNE56 SLP197 P0000 60000 T10441061 58005 FZRANO
PFSH 221356Z AUTO 14017KT 6SM -SN BR OVC033 M04/M07 A3012 RMK AO2 SNB35 SLP199 P0000 T10441067 FZRANO
PFSH 221256Z AUTO 14016KT 10SM BKN045 M05/M08 A3013 RMK AO2 SLP203 T10501078 FZRANO
PFSH 221156Z AUTO 14017KT 10SM CLR M06/M08 A3013 RMK AO2 SLP203 60000 T10561078 11022 21056 51002 FZRANO
PFSH 221056Z AUTO 15012KT 10SM OVC045 M04/M07 A3013 RMK AO2 SLP203 T10441072 FZRANO
PFSH 220956Z AUTO 18017KT 10SM CLR M03/M06 A3013 RMK AO2 SLP204 T10331056 FZRANO
PFSH 220856Z AUTO 20013KT 10SM OVC045 M03/M05 A3012 RMK AO2 SLP200 60000 T10281050 410221061 53015 FZRANO
PFSH 220756Z AUTO 19016KT 10SM SCT036 OVC047 M02/M05 A3010 RMK AO2 SNE47 SLP192 P0000 T10221050 FZRANO
PFSH 220656Z AUTO 19016KT 9SM -SN OVC043 M02/M04 A3009 RMK AO2 SLP188 P0000 T10221039 FZRANO
PFSH 220556Z AUTO 20014KT 9SM -SN SCT030 OVC039 M03/M04 A3008 RMK AO2 SLP185 P0000 60000 T10281044 11028 21028 53016 FZRANO
PFSH 220456Z AUTO 20015KT 9SM -SN OVC033 M03/M05 A3006 RMK AO2 SLP180 P0000 T10281050 FZRANO
PFSH 220415Z AUTO 20015KT 9SM -SN OVC031 M03/M05 A3005 RMK AO2 P0000 FZRANO
PFSH 220356Z AUTO 19016KT 9SM -SN OVC029 M03/M04 A3004 RMK AO2 SLP174 P0000 T10281044 FZRANO
PFSH 220256Z AUTO 20016G23KT 8SM -SN SCT016 BKN023 OVC030 M03/M05 A3003 RMK AO2 SLP170 P0000 60000 T10281050 53015 FZRANO
PFSH 220229Z AUTO 20020KT 2SM -SN BR BKN013 OVC022 M03/M04 A3002 RMK AO2 VIS 1 1/4V4 P0000 FZRANO
PFSH 220221Z AUTO 19019KT 3SM -SN BR BKN013 OVC018 M03/M04 A3002 RMK AO2 P0000 FZRANO
PFSH 220210Z AUTO 19019KT 1 3/4SM -SN BR BKN011 BKN021 OVC027 M03/M04 A3001 RMK AO2 VIS 1V5 P0000 FZRANO
PFSH 220205Z AUTO 18019KT 3SM -SN BR FEW006 BKN011 OVC023 M03/M04 A3001 RMK AO2 P0000 FZRANO
PFSH 220156Z AUTO 18017KT 2 1/2SM -SN BR FEW006 BKN011 OVC026 M03/M04 A3001 RMK AO2 VIS 1 1/4V5 SLP163 P0000 T10281039 FZRANO
PFSH 220150Z AUTO 19018KT 2SM -SN BR FEW006 BKN011 OVC017 M03/M04 A3001 RMK AO2 VIS 1 1/2V4 CIG 008V013 P0000 FZRANO
PFSH 220136Z AUTO 19015KT 1 1/2SM -SN BR BKN008 BKN017 OVC034 M03/M04 A3001 RMK AO2 VIS 1V5 CIG 006V012 P0000 FZRANO
PFSH 220127Z AUTO 19019KT 1 1/4SM -SN BR SCT008 BKN014 OVC032 M03/M04 A3001 RMK AO2 VIS 3/4V4 P0000 FZRANO
PFSH 220119Z AUTO 20019KT 2 1/2SM -SN BR SCT008 BKN014 OVC032 M03/M04 A3001 RMK AO2 P0000 FZRANO
PFSH 220108Z AUTO 19019KT 5SM -SN BR BKN012 OVC031 M03/M04 A3000 RMK AO2 P0000 FZRANO
PFSH 220056Z AUTO 20017KT 8SM -SN SCT012 BKN031 OVC044 M03/M04 A3000 RMK AO2 SLP158 P0000 T10281044 FZRANO
PFSH 220049Z AUTO 20017KT 4SM -SN BR FEW012 OVC031 M03/M04 A3000 RMK AO2 P0000 FZRANO
PFSH 220020Z AUTO 20017KT 3SM -SN BR FEW009 BKN017 OVC028 M03/M04 A2999 RMK AO2 P0000 FZRANO
PFSH 220016Z AUTO 20017KT 2 1/2SM -SN BR FEW010 BKN019 OVC026 M03/M04 A2999 RMK AO2 VIS 1 1/2V4 P0000 FZRANO
PFSH 220002Z AUTO 20019KT 1 1/2SM -SN BR SCT010 BKN016 OVC029 M03/M04 A2999 RMK AO2 P0000 FZRANO
PFSH 212356Z AUTO 20020KT 1SM -SN BR FEW006 BKN010 OVC025 M03/M04 A2999 RMK AO2 CIG 008V013 SLP155 P0000 60000 T10281039 11028 21061 51008 FZRANO
PFSH 212342Z AUTO 19018KT 1 1/2SM -SN BR BKN008 OVC012 M03/M04 A2999 RMK AO2 CIG 004V010 P0000 FZRANO
PFSH 212330Z AUTO 17018KT 1SM -SN BR OVC006 M03/M04 A2999 RMK AO2 CIG 004V010 P0000 FZRANO
PFSH 212323Z AUTO 16020KT 1/2SM -SN FZFG OVC008 M03/M04 A2998 RMK AO2 CIG 004V013 P0000 FZRANO
PFSH 212316Z AUTO 16020KT 1/2SM SN FZFG OVC010 M03/M04 A2998 RMK AO2 CIG 004V013 P0000 FZRANO
PFSH 212303Z AUTO 16017KT 3/4SM -SN BR OVC010 M03/M04 A2998 RMK AO2 CIG 007V012 P0000 FZRANO
PFSH 212256Z AUTO 16018KT 1/2SM -SN FZFG OVC010 M03/M05 A2998 RMK AO2 CIG 007V012 SLP152 P0000 T10331050 FZRANO
PFSH 212247Z AUTO 16018KT 1/2SM SN FZFG OVC013 M03/M05 A2998 RMK AO2 P0000 FZRANO
PFSH 212238Z AUTO 16019KT 3/4SM -SN BR OVC013 M03/M05 A2998 RMK AO2 P0000 FZRANO
PFSH 212211Z AUTO 16018KT 3/4SM -SN BR BKN015 OVC021 M04/M05 A2997 RMK AO2 P0000 FZRANO
PFSH 212202Z AUTO 15018KT 1SM -SN BR FEW010 BKN015 OVC021 M04/M05 A2997 RMK AO2 P0000 FZRANO
PFSH 212156Z AUTO 16018KT 3/4SM -SN BR FEW011 BKN015 OVC021 M04/M06 A2996 RMK AO2 SLP147 P0000 T10391056 FZRANO
PFSH 212152Z AUTO 16017KT 1SM -SN BR BKN014 OVC019 M04/M06 A2996 RMK AO2 P0000 FZRANO
PFSH 212147Z AUTO 15018KT 3/4SM -SN BR FEW011 OVC018 M04/M06 A2996 RMK AO2 P0000 FZRANO
PFSH 212136Z AUTO 15016KT 1/4SM SN FZFG SCT011 BKN018 OVC028 M04/M06 A2996 RMK AO2 P0000 FZRANO
PFSH 212132Z AUTO 15015KT 3/4SM -SN BR FEW011 BKN021 OVC028 M04/M06 A2995 RMK AO2 P0000 FZRANO
PFSH 212111Z AUTO 16018KT 1 1/2SM -SN BR SCT018 BKN026 OVC031 M04/M06 A2995 RMK AO2 VIS 3/4V2 1/2 P0000 FZRANO
PFSH 212103Z AUTO 16017KT 1SM -SN BR BKN020 BKN026 OVC031 M04/M06 A2995 RMK AO2 P0000 FZRANO
PFSH 212056Z AUTO 16019KT 1 1/4SM -SN BR SCT016 BKN022 OVC030 M04/M06 A2995 RMK AO2 SLP141 P0000 60000 T10391056 53023 FZRANO
PFSH 212047Z AUTO 16017KT 1 1/2SM -SN BR BKN016 OVC023 M04/M06 A2994 RMK AO2 P0000 FZRANO
PFSH 212039Z AUTO 16020KT 2SM -SN BR OVC016 M04/M06 A2994 RMK AO2 VIS 1 3/4V3 P0000 FZRANO
PFSH 212026Z AUTO 16018G23KT 3SM -SN BR BKN016 OVC022 M04/M06 A2994 RMK AO2 P0000 FZRANO
PFSH 212010Z AUTO 14017KT 1 3/4SM -SN BR SCT018 BKN022 OVC031 M05/M07 A2993 RMK AO2 P0000 FZRANO
PFSH 211956Z AUTO 15017KT 3SM -SN BR BKN022 OVC031 M06/M07 A2992 RMK AO2 SLP132 P0000 T10561067 FZRANO
PFSH 211944Z AUTO 14017KT 3SM -SN BR BKN022 BKN032 OVC049 M06/M07 A2992 RMK AO2 P0000 FZRANO
PFSH 211939Z AUTO 14015KT 1 3/4SM -SN BR BKN022 BKN037 OVC049 M06/M07 A2992 RMK AO2 P0000 FZRANO
PFSH 211930Z AUTO 14018KT 2 1/2SM -SN BR SCT020 BKN025 OVC049 M06/M07 A2991 RMK AO2 P0000 FZRANO
PFSH 211920Z AUTO 14018KT 3SM -SN BR FEW020 BKN037 OVC047 M06/M07 A2991 RMK AO2 P0000 FZRANO
PFSH 211859Z AUTO 14016KT 4SM -SN BR FEW018 BKN023 OVC037 M06/M07 A2990 RMK AO2 P0000 FZRANO
PFSH 211856Z AUTO 14018KT 2 1/2SM -SN BR FEW018 SCT023 OVC037 M06/M07 A2990 RMK AO2 SLP125 P0000 T10561072 FZRANO